Time;durP1;ratioP1;P1;durP2;ratioP2;P2;SDS_P1;SDS_P2;PMS_P1;PMS_P2;Temp;Humidity;BMP_temperature;BMP_pressure;BME280_temperature;BME280_humidity;BME280_pressure;Samples;Min_cycle;Max_cycle;Signal;HPM_P1;HPM_P2
2021/08/17 00:01:45;;;;;;;;;;;25.30;67.90;;;;;;4973962;28;19932;-59
2021/08/17 00:04:12;;;;;;;;;;;25.30;67.60;;;;;;4990215;28;19975;-59
2021/08/17 00:06:39;;;;;;;;;;;25.30;67.90;;;;;;4991153;28;20008;-60
2021/08/17 00:09:06;;;;;;;;;;;25.30;68.60;;;;;;4991441;28;20383;-60
2021/08/17 00:11:34;;;;;;;;;;;25.30;67.60;;;;;;4991263;28;19932;-60
2021/08/17 00:14:01;;;;;;;;;;;25.30;68.00;;;;;;4990381;28;19968;-61
2021/08/17 00:16:28;;;;;;;;;;;25.30;68.00;;;;;;4991018;28;19979;-60
2021/08/17 00:18:55;;;;;;;;;;;25.30;67.90;;;;;;4990691;28;19969;-60
2021/08/17 00:21:22;;;;;;;;;;;25.30;67.70;;;;;;4991124;28;19930;-59
2021/08/17 00:23:50;;;;;;;;;;;25.30;67.70;;;;;;4990034;28;19981;-59
2021/08/17 00:26:17;;;;;;;;;;;25.30;67.60;;;;;;4987866;28;20340;-60
2021/08/17 00:28:44;;;;;;;;;;;25.30;67.50;;;;;;4989497;28;20390;-59
2021/08/17 00:31:11;;;;;;;;;;;25.30;67.60;;;;;;4990699;28;19926;-60
2021/08/17 00:33:39;;;;;;;;;;;25.30;67.70;;;;;;4990503;28;20343;-59
2021/08/17 00:36:06;;;;;;;;;;;25.30;67.60;;;;;;4972266;28;20449;-60
2021/08/17 00:38:37;;;;;;;;;;;25.30;67.30;;;;;;4990609;28;20385;-60
2021/08/17 00:41:08;;;;;;;;;;;25.30;67.20;;;;;;4989703;28;20004;-59
2021/08/17 00:43:36;;;;;;;;;;;25.30;67.40;;;;;;4990835;28;20331;-60
2021/08/17 00:46:04;;;;;;;;;;;25.30;67.40;;;;;;4990821;28;19976;-60
2021/08/17 00:48:33;;;;;;;;;;;25.30;67.30;;;;;;4988909;28;19977;-60
2021/08/17 00:51:00;;;;;;;;;;;25.30;67.20;;;;;;4990188;28;19969;-60
2021/08/17 00:53:27;;;;;;;;;;;25.30;67.20;;;;;;4990031;28;19976;-60
2021/08/17 00:55:54;;;;;;;;;;;25.30;67.20;;;;;;4989027;28;20405;-60
2021/08/17 00:58:21;;;;;;;;;;;25.30;67.20;;;;;;4989199;28;20000;-59
2021/08/17 01:00:48;;;;;;;;;;;25.30;67.20;;;;;;4990256;28;19973;-61
2021/08/17 01:03:17;;;;;;;;;;;25.30;67.20;;;;;;4989481;28;19934;-60
2021/08/17 01:05:44;;;;;;;;;;;25.30;67.00;;;;;;4990333;28;19925;-60
2021/08/17 01:08:11;;;;;;;;;;;25.30;67.30;;;;;;4989391;28;20390;-61
2021/08/17 01:10:41;;;;;;;;;;;25.30;67.00;;;;;;4990068;28;19969;-59
2021/08/17 01:13:08;;;;;;;;;;;25.30;66.80;;;;;;4989990;28;19963;-60
2021/08/17 01:15:35;;;;;;;;;;;25.30;67.10;;;;;;4990287;28;19975;-59
2021/08/17 01:18:06;;;;;;;;;;;25.30;67.00;;;;;;4989353;28;19926;-60
2021/08/17 01:20:34;;;;;;;;;;;25.30;66.80;;;;;;4988953;28;19983;-60
2021/08/17 01:23:01;;;;;;;;;;;25.30;67.00;;;;;;4990269;28;19925;-60
2021/08/17 01:25:40;;;;;;;;;;;25.30;66.60;;;;;;4989230;28;19962;-60
2021/08/17 01:28:11;;;;;;;;;;;25.30;66.60;;;;;;4988775;28;19933;-60
2021/08/17 01:30:38;;;;;;;;;;;25.30;67.00;;;;;;4989911;28;19932;-60
2021/08/17 01:33:05;;;;;;;;;;;25.30;66.20;;;;;;4989918;28;19932;-59
2021/08/17 01:35:32;;;;;;;;;;;25.30;66.60;;;;;;4990129;28;19976;-60
2021/08/17 01:38:02;;;;;;;;;;;25.30;66.50;;;;;;4971808;28;20013;-59
2021/08/17 01:40:29;;;;;;;;;;;25.30;66.30;;;;;;4989779;28;19925;-61
2021/08/17 01:42:56;;;;;;;;;;;25.30;66.50;;;;;;4988670;28;20433;-60
2021/08/17 01:45:23;;;;;;;;;;;25.30;66.60;;;;;;4989699;28;19926;-60
2021/08/17 01:47:51;;;;;;;;;;;25.30;65.80;;;;;;4989513;28;20012;-59
2021/08/17 01:50:19;;;;;;;;;;;25.30;66.10;;;;;;4989616;28;20016;-59
2021/08/17 01:52:46;;;;;;;;;;;25.30;65.70;;;;;;4988592;28;20024;-60
2021/08/17 01:55:13;;;;;;;;;;;25.30;66.20;;;;;;4972217;28;19977;-59
2021/08/17 01:57:41;;;;;;;;;;;25.30;66.20;;;;;;4988517;28;19925;-60
2021/08/17 02:00:08;;;;;;;;;;;25.30;66.00;;;;;;4989602;28;19972;-60
2021/08/17 02:02:36;;;;;;;;;;;25.30;65.90;;;;;;4992845;28;19948;-59
2021/08/17 02:05:04;;;;;;;;;;;25.30;66.10;;;;;;4993069;28;19949;-60
2021/08/17 02:07:31;;;;;;;;;;;25.30;65.80;;;;;;4992086;28;19992;-60
2021/08/17 02:09:58;;;;;;;;;;;25.30;65.60;;;;;;4992043;28;20327;-60
2021/08/17 02:12:25;;;;;;;;;;;25.30;66.20;;;;;;4993085;28;19975;-60
2021/08/17 02:14:52;;;;;;;;;;;25.30;66.20;;;;;;4993085;28;19965;-60
2021/08/17 02:17:19;;;;;;;;;;;25.30;65.70;;;;;;4999820;28;19926;-60
2021/08/17 02:19:46;;;;;;;;;;;25.30;65.80;;;;;;4991427;28;19930;-60
2021/08/17 02:22:13;;;;;;;;;;;25.30;66.00;;;;;;4992845;28;19934;-59
2021/08/17 02:24:41;;;;;;;;;;;25.30;66.10;;;;;;4992463;28;19926;-60
2021/08/17 02:27:08;;;;;;;;;;;25.30;66.40;;;;;;4992215;28;19933;-59
2021/08/17 02:29:35;;;;;;;;;;;25.30;65.90;;;;;;4992518;28;20013;-60
2021/08/17 02:32:02;;;;;;;;;;;25.30;65.40;;;;;;4991717;28;20346;-61
2021/08/17 02:34:29;;;;;;;;;;;25.30;66.00;;;;;;4975243;28;19925;-60
2021/08/17 02:36:56;;;;;;;;;;;25.20;65.80;;;;;;4992317;28;19926;-60
2021/08/17 02:39:23;;;;;;;;;;;25.30;66.10;;;;;;4991272;28;19925;-60
2021/08/17 02:41:50;;;;;;;;;;;25.30;65.50;;;;;;4992112;28;20009;-60
2021/08/17 02:44:17;;;;;;;;;;;25.30;66.00;;;;;;4991941;28;20006;-60
2021/08/17 02:46:44;;;;;;;;;;;25.20;65.70;;;;;;4992252;28;19926;-60
2021/08/17 02:49:11;;;;;;;;;;;25.30;65.90;;;;;;4990972;28;20442;-61
2021/08/17 02:51:39;;;;;;;;;;;25.30;66.10;;;;;;4991421;28;19932;-59
2021/08/17 02:54:06;;;;;;;;;;;25.30;66.20;;;;;;4990768;28;19979;-59
2021/08/17 02:56:33;;;;;;;;;;;25.30;66.40;;;;;;4992252;28;20296;-59
2021/08/17 02:59:00;;;;;;;;;;;25.20;65.90;;;;;;4973694;28;19926;-60
2021/08/17 03:01:27;;;;;;;;;;;25.30;65.90;;;;;;4991970;28;19926;-59
2021/08/17 03:03:55;;;;;;;;;;;25.30;66.20;;;;;;4991932;28;19979;-59
2021/08/17 03:06:22;;;;;;;;;;;25.30;65.80;;;;;;4991051;28;19932;-60
2021/08/17 03:08:49;;;;;;;;;;;25.30;66.30;;;;;;4973984;28;19927;-59
2021/08/17 03:11:16;;;;;;;;;;;25.30;65.60;;;;;;4991147;28;20017;-59
2021/08/17 03:13:44;;;;;;;;;;;25.30;65.90;;;;;;4990788;28;20402;-59
2021/08/17 03:16:11;;;;;;;;;;;25.20;66.10;;;;;;4992358;28;19985;-59
2021/08/17 03:18:39;;;;;;;;;;;25.20;66.00;;;;;;4990669;28;19926;-59
2021/08/17 03:21:06;;;;;;;;;;;25.30;66.00;;;;;;4974872;28;19948;-60
2021/08/17 03:23:33;;;;;;;;;;;25.20;65.70;;;;;;4991767;28;19926;-60
2021/08/17 03:26:00;;;;;;;;;;;25.30;66.20;;;;;;4991613;28;19926;-60
2021/08/17 03:28:27;;;;;;;;;;;25.20;66.00;;;;;;4990407;28;19926;-60
2021/08/17 03:30:54;;;;;;;;;;;25.20;66.00;;;;;;4990854;28;20032;-60
2021/08/17 03:33:21;;;;;;;;;;;25.30;66.10;;;;;;4990740;28;19988;-61
2021/08/17 03:35:48;;;;;;;;;;;25.20;65.90;;;;;;4974354;28;20378;-60
2021/08/17 03:38:15;;;;;;;;;;;25.20;66.10;;;;;;4974080;28;20397;-60
2021/08/17 03:40:42;;;;;;;;;;;25.20;66.10;;;;;;4991603;28;19930;-60
2021/08/17 03:43:09;;;;;;;;;;;25.20;66.10;;;;;;4991317;28;19976;-60
2021/08/17 03:45:36;;;;;;;;;;;25.20;66.20;;;;;;4991457;28;19965;-60
2021/08/17 03:48:04;;;;;;;;;;;25.30;66.00;;;;;;4991597;28;20012;-60
2021/08/17 03:50:30;;;;;;;;;;;25.30;66.20;;;;;;4990247;28;20393;-60
2021/08/17 03:52:57;;;;;;;;;;;25.20;65.60;;;;;;4991237;28;19965;-60
2021/08/17 03:55:24;;;;;;;;;;;25.20;65.50;;;;;;4989776;28;19926;-60
2021/08/17 03:57:51;;;;;;;;;;;25.20;66.00;;;;;;4989913;28;19933;-60
2021/08/17 04:00:21;;;;;;;;;;;25.20;66.40;;;;;;4991398;28;19976;-60
2021/08/17 04:02:48;;;;;;;;;;;25.10;65.50;;;;;;4973875;28;19929;-60
2021/08/17 04:05:15;;;;;;;;;;;25.10;65.90;;;;;;4991403;28;19977;-60
2021/08/17 04:07:42;;;;;;;;;;;25.10;65.80;;;;;;4973951;28;19933;-60
2021/08/17 04:10:09;;;;;;;;;;;25.10;65.80;;;;;;4991009;28;19933;-60
2021/08/17 04:12:36;;;;;;;;;;;25.10;65.80;;;;;;4991483;28;19983;-60
2021/08/17 04:15:04;;;;;;;;;;;25.10;65.70;;;;;;4989853;28;19926;-60
2021/08/17 04:17:31;;;;;;;;;;;25.20;65.70;;;;;;4989905;28;19969;-60
2021/08/17 04:19:58;;;;;;;;;;;25.10;65.40;;;;;;4991154;28;20016;-60
2021/08/17 04:22:25;;;;;;;;;;;25.10;65.70;;;;;;4989751;28;20328;-60
2021/08/17 04:24:53;;;;;;;;;;;25.10;65.50;;;;;;4989659;28;19969;-60
2021/08/17 04:27:20;;;;;;;;;;;25.10;65.90;;;;;;4989553;28;19965;-60
2021/08/17 04:29:47;;;;;;;;;;;25.10;65.40;;;;;;4989610;28;19932;-60
2021/08/17 04:32:14;;;;;;;;;;;25.10;65.60;;;;;;4972700;28;19932;-60
2021/08/17 04:34:41;;;;;;;;;;;25.10;65.40;;;;;;4990578;28;19926;-60
2021/08/17 04:37:08;;;;;;;;;;;25.10;65.70;;;;;;4989553;28;19977;-60
2021/08/17 04:39:35;;;;;;;;;;;25.10;65.50;;;;;;4990774;28;20293;-60
2021/08/17 04:42:03;;;;;;;;;;;25.10;65.50;;;;;;4990682;28;19932;-59
2021/08/17 04:44:33;;;;;;;;;;;25.10;65.70;;;;;;4990566;28;19926;-60
2021/08/17 04:47:00;;;;;;;;;;;25.10;65.40;;;;;;4990309;28;19969;-59
2021/08/17 04:49:27;;;;;;;;;;;25.00;65.20;;;;;;4989396;28;19959;-61
2021/08/17 04:51:54;;;;;;;;;;;25.00;65.30;;;;;;4989673;28;19983;-60
2021/08/17 04:54:21;;;;;;;;;;;25.10;65.40;;;;;;4988956;28;20366;-60
2021/08/17 04:56:48;;;;;;;;;;;25.10;65.00;;;;;;4989100;28;20451;-59
2021/08/17 04:59:15;;;;;;;;;;;25.10;65.10;;;;;;4990502;28;19976;-60
2021/08/17 05:01:42;;;;;;;;;;;25.10;65.30;;;;;;4990284;28;19926;-60
2021/08/17 05:04:10;;;;;;;;;;;25.10;64.80;;;;;;4990804;28;20350;-60
2021/08/17 05:06:37;;;;;;;;;;;25.00;64.90;;;;;;5001761;28;19976;-60
2021/08/17 05:09:04;;;;;;;;;;;25.10;65.20;;;;;;4990523;28;19926;-60
2021/08/17 05:11:32;;;;;;;;;;;25.10;65.20;;;;;;4990525;28;19929;-60
2021/08/17 05:13:59;;;;;;;;;;;25.10;65.10;;;;;;4990179;28;19930;-60
2021/08/17 05:16:26;;;;;;;;;;;25.10;65.00;;;;;;4990026;28;19932;-60
2021/08/17 05:18:53;;;;;;;;;;;25.00;64.80;;;;;;4988839;28;19925;-60
2021/08/17 05:21:22;;;;;;;;;;;25.10;65.00;;;;;;4989360;28;20289;-60
2021/08/17 05:23:49;;;;;;;;;;;25.00;64.90;;;;;;4988916;28;19925;-61
2021/08/17 05:26:17;;;;;;;;;;;25.10;65.00;;;;;;4989265;28;20332;-60
2021/08/17 05:28:44;;;;;;;;;;;25.10;64.80;;;;;;4988893;28;19926;-60
2021/08/17 05:31:11;;;;;;;;;;;25.00;64.40;;;;;;4988674;28;19926;-61
2021/08/17 05:33:38;;;;;;;;;;;25.10;64.90;;;;;;4989874;28;19926;-60
2021/08/17 05:36:06;;;;;;;;;;;25.00;65.00;;;;;;4990118;28;20297;-60
2021/08/17 05:38:33;;;;;;;;;;;25.10;64.90;;;;;;4992373;28;19925;-60
2021/08/17 05:41:00;;;;;;;;;;;25.10;64.80;;;;;;4992192;28;19926;-60
2021/08/17 05:43:27;;;;;;;;;;;25.10;65.00;;;;;;4993225;28;20024;-59
2021/08/17 05:46:04;;;;;;;;;;;25.10;64.40;;;;;;4992112;28;19925;-60
2021/08/17 05:48:34;;;;;;;;;;;25.10;64.80;;;;;;4993096;28;19975;-60
2021/08/17 05:51:01;;;;;;;;;;;25.10;64.60;;;;;;4993087;28;19973;-60
2021/08/17 05:53:28;;;;;;;;;;;25.10;64.80;;;;;;4993127;28;20278;-60
2021/08/17 05:55:55;;;;;;;;;;;25.10;64.70;;;;;;4992812;28;19926;-60
2021/08/17 05:58:22;;;;;;;;;;;25.10;64.50;;;;;;4993075;28;20289;-60
2021/08/17 06:00:49;;;;;;;;;;;25.10;64.70;;;;;;4993277;28;19933;-59
2021/08/17 06:03:17;;;;;;;;;;;25.10;64.50;;;;;;4992438;28;20377;-60
2021/08/17 06:05:44;;;;;;;;;;;25.20;64.30;;;;;;4993040;28;20005;-60
2021/08/17 06:08:11;;;;;;;;;;;25.10;64.40;;;;;;5008228;28;19925;-60
2021/08/17 06:10:38;;;;;;;;;;;25.20;64.40;;;;;;4990843;28;19965;-60
2021/08/17 06:13:05;;;;;;;;;;;25.10;63.80;;;;;;4992748;28;19926;-60
2021/08/17 06:15:33;;;;;;;;;;;25.10;64.20;;;;;;4992702;28;19929;-60
2021/08/17 06:18:04;;;;;;;;;;;25.20;64.40;;;;;;4991444;28;19984;-59
2021/08/17 06:20:31;;;;;;;;;;;25.20;64.40;;;;;;4992673;28;20004;-60
2021/08/17 06:22:58;;;;;;;;;;;25.20;64.10;;;;;;4991538;28;19930;-60
2021/08/17 06:25:26;;;;;;;;;;;25.20;63.70;;;;;;4992512;28;19925;-59
2021/08/17 06:27:54;;;;;;;;;;;25.30;63.80;;;;;;4991153;28;19926;-60
2021/08/17 06:30:23;;;;;;;;;;;25.30;63.30;;;;;;4991351;28;19938;-60
2021/08/17 06:32:53;;;;;;;;;;;25.30;64.00;;;;;;4992800;28;19926;-60
2021/08/17 06:35:20;;;;;;;;;;;25.30;63.50;;;;;;4992425;28;19969;-60
2021/08/17 06:37:47;;;;;;;;;;;25.40;63.50;;;;;;4992618;28;20339;-61
2021/08/17 06:40:15;;;;;;;;;;;25.40;63.30;;;;;;4992478;28;19926;-60
2021/08/17 06:42:43;;;;;;;;;;;25.40;63.10;;;;;;4991445;28;19926;-59
2021/08/17 06:45:10;;;;;;;;;;;25.40;62.60;;;;;;4992584;28;19930;-59
2021/08/17 06:47:58;;;;;;;;;;;25.40;62.50;;;;;;4991800;28;19930;-60
2021/08/17 06:50:42;;;;;;;;;;;25.40;62.90;;;;;;4992501;28;19932;-60
2021/08/17 06:53:10;;;;;;;;;;;25.40;62.90;;;;;;4974914;28;19975;-60
2021/08/17 06:55:37;;;;;;;;;;;25.40;62.70;;;;;;4990731;28;20055;-60
2021/08/17 06:58:07;;;;;;;;;;;25.40;62.80;;;;;;4992080;28;19988;-61
2021/08/17 07:00:35;;;;;;;;;;;25.40;62.40;;;;;;4992376;28;19926;-60
2021/08/17 07:03:04;;;;;;;;;;;25.50;62.20;;;;;;4990944;28;19979;-60
2021/08/17 07:05:34;;;;;;;;;;;25.50;62.30;;;;;;4990885;28;19935;-59
2021/08/17 07:08:02;;;;;;;;;;;25.50;61.50;;;;;;4990729;28;19926;-60
2021/08/17 07:10:30;;;;;;;;;;;25.50;61.40;;;;;;4991956;28;19926;-60
2021/08/17 07:13:17;;;;;;;;;;;25.50;62.00;;;;;;4992165;28;20284;-59
2021/08/17 07:15:44;;;;;;;;;;;25.50;60.80;;;;;;4990758;28;19932;-60
2021/08/17 07:18:12;;;;;;;;;;;25.50;61.30;;;;;;4991671;28;20341;-60
2021/08/17 07:20:39;;;;;;;;;;;25.50;60.90;;;;;;4991652;28;20017;-60
2021/08/17 07:23:06;;;;;;;;;;;25.50;60.50;;;;;;4990569;28;19957;-59
2021/08/17 07:25:35;;;;;;;;;;;25.50;61.00;;;;;;4990763;28;19932;-60
2021/08/17 07:28:03;;;;;;;;;;;25.50;59.40;;;;;;4990909;28;19926;-60
2021/08/17 07:30:32;;;;;;;;;;;25.50;60.00;;;;;;4990915;28;19952;-61
2021/08/17 07:32:59;;;;;;;;;;;25.50;60.30;;;;;;4991702;28;19930;-60
2021/08/17 07:35:26;;;;;;;;;;;25.40;60.40;;;;;;4991570;28;19926;-61
2021/08/17 07:37:54;;;;;;;;;;;25.40;59.60;;;;;;4990630;28;20320;-60
2021/08/17 07:40:22;;;;;;;;;;;25.50;60.40;;;;;;4991441;28;19926;-59
2021/08/17 07:42:49;;;;;;;;;;;25.50;60.20;;;;;;4972992;28;20396;-60
2021/08/17 07:45:18;;;;;;;;;;;25.50;60.10;;;;;;4991695;28;19926;-60
2021/08/17 07:47:51;;;;;;;;;;;25.50;59.30;;;;;;4991139;28;19926;-60
2021/08/17 07:50:18;;;;;;;;;;;25.50;59.40;;;;;;4990222;28;19936;-60
2021/08/17 07:52:45;;;;;;;;;;;25.50;60.00;;;;;;4990520;28;19930;-59
2021/08/17 07:55:14;;;;;;;;;;;25.60;59.60;;;;;;4990410;28;20297;-60
2021/08/17 07:57:41;;;;;;;;;;;25.50;59.70;;;;;;4974662;28;20331;-60
2021/08/17 08:00:10;;;;;;;;;;;25.50;59.60;;;;;;4990685;28;19984;-60
2021/08/17 08:02:38;;;;;;;;;;;25.50;60.10;;;;;;4991107;28;20009;-59
2021/08/17 08:05:06;;;;;;;;;;;25.50;59.30;;;;;;4991356;28;19926;-59
2021/08/17 08:07:33;;;;;;;;;;;25.60;59.60;;;;;;4991305;28;19932;-59
2021/08/17 08:10:01;;;;;;;;;;;25.60;58.60;;;;;;4973725;28;20408;-60
2021/08/17 08:12:28;;;;;;;;;;;25.60;59.20;;;;;;4991246;28;20297;-59
2021/08/17 08:14:55;;;;;;;;;;;25.70;59.00;;;;;;4990047;28;20382;-59
2021/08/17 08:17:47;;;;;;;;;;;25.70;58.80;;;;;;4990832;28;19994;-59
2021/08/17 08:20:14;;;;;;;;;;;25.70;58.60;;;;;;4989820;28;19926;-59
2021/08/17 08:22:42;;;;;;;;;;;25.70;58.80;;;;;;4989903;28;20036;-59
2021/08/17 08:25:10;;;;;;;;;;;25.70;58.30;;;;;;4990727;28;19929;-60
2021/08/17 08:27:37;;;;;;;;;;;25.70;58.60;;;;;;4990579;28;19926;-60
2021/08/17 08:30:05;;;;;;;;;;;25.80;58.80;;;;;;4989488;28;19926;-61
2021/08/17 08:32:33;;;;;;;;;;;25.80;58.50;;;;;;4989612;28;19926;-60
2021/08/17 08:35:01;;;;;;;;;;;25.80;58.50;;;;;;4989537;28;19930;-59
2021/08/17 08:37:29;;;;;;;;;;;25.80;58.30;;;;;;4990656;28;19975;-60
2021/08/17 08:39:57;;;;;;;;;;;25.80;58.50;;;;;;4956841;28;20357;-60
2021/08/17 08:42:26;;;;;;;;;;;25.80;58.40;;;;;;4990426;28;19925;-60
2021/08/17 08:44:54;;;;;;;;;;;25.80;58.30;;;;;;4990388;28;19929;-60
2021/08/17 08:47:22;;;;;;;;;;;25.80;58.20;;;;;;5005666;28;20335;-60
2021/08/17 08:49:51;;;;;;;;;;;25.80;58.70;;;;;;4990537;28;19975;-60
2021/08/17 08:52:19;;;;;;;;;;;25.80;58.40;;;;;;4990551;28;20384;-60
2021/08/17 08:54:46;;;;;;;;;;;25.70;58.10;;;;;;4989978;28;19932;-60
2021/08/17 08:57:13;;;;;;;;;;;25.80;59.00;;;;;;4990383;28;19925;-60
2021/08/17 08:59:41;;;;;;;;;;;25.80;58.60;;;;;;4990130;28;19926;-59
2021/08/17 09:02:09;;;;;;;;;;;25.80;58.40;;;;;;4990159;28;19930;-60
2021/08/17 09:04:37;;;;;;;;;;;25.80;58.80;;;;;;4990102;28;19929;-59
2021/08/17 09:07:05;;;;;;;;;;;25.70;58.70;;;;;;4990475;28;19925;-60
2021/08/17 09:09:32;;;;;;;;;;;25.70;57.90;;;;;;4990142;28;19926;-60
2021/08/17 09:12:00;;;;;;;;;;;25.70;58.60;;;;;;4993525;28;19926;-59
2021/08/17 09:14:28;;;;;;;;;;;25.70;58.60;;;;;;4993579;28;19949;-61
2021/08/17 09:17:00;;;;;;;;;;;25.70;58.80;;;;;;4992542;28;19998;-60
2021/08/17 09:19:43;;;;;;;;;;;25.70;58.40;;;;;;4981452;28;19948;-60
2021/08/17 09:22:19;;;;;;;;;;;25.70;59.00;;;;;;4993481;28;19926;-59
2021/08/17 09:24:47;;;;;;;;;;;25.80;58.60;;;;;;4992315;28;19926;-60
2021/08/17 09:27:16;;;;;;;;;;;25.80;58.40;;;;;;4992028;28;19925;-60
2021/08/17 09:29:53;;;;;;;;;;;25.90;58.20;;;;;;4992139;28;19930;-59
2021/08/17 09:32:27;;;;;;;;;;;25.90;58.40;;;;;;4993412;28;20389;-60
2021/08/17 09:34:58;;;;;;;;;;;25.90;58.50;;;;;;4992267;28;19937;-60
2021/08/17 09:37:29;;;;;;;;;;;25.90;58.30;;;;;;4993356;28;19925;-60
2021/08/17 09:39:56;;;;;;;;;;;25.90;57.80;;;;;;4992017;28;20335;-60
2021/08/17 09:42:31;;;;;;;;;;;25.90;58.00;;;;;;4991972;28;20015;-60
2021/08/17 09:45:04;;;;;;;;;;;25.90;57.60;;;;;;4992363;28;19926;-61
2021/08/17 09:47:38;;;;;;;;;;;26.00;57.80;;;;;;4992958;28;19930;-60
2021/08/17 09:50:26;;;;;;;;;;;26.00;57.40;;;;;;4992986;28;19926;-60
2021/08/17 09:53:12;;;;;;;;;;;26.00;57.30;;;;;;4993308;28;20290;-60
2021/08/17 09:55:46;;;;;;;;;;;25.90;57.70;;;;;;4992608;28;19926;-59
2021/08/17 09:58:18;;;;;;;;;;;25.90;57.00;;;;;;4992867;28;20005;-60
2021/08/17 10:00:46;;;;;;;;;;;25.90;57.20;;;;;;4992145;28;20297;-59
2021/08/17 10:03:14;;;;;;;;;;;25.90;56.90;;;;;;4992816;28;19926;-59
2021/08/17 10:05:42;;;;;;;;;;;25.90;57.50;;;;;;4993125;28;19929;-60
2021/08/17 10:08:11;;;;;;;;;;;25.80;57.40;;;;;;4993123;28;19932;-59
2021/08/17 10:10:40;;;;;;;;;;;25.80;56.60;;;;;;4992768;28;19991;-59
2021/08/17 10:13:11;;;;;;;;;;;25.90;57.00;;;;;;4991529;28;20381;-59
2021/08/17 10:15:38;;;;;;;;;;;25.90;57.20;;;;;;4992663;28;19933;-60
2021/08/17 10:18:07;;;;;;;;;;;25.90;57.10;;;;;;4992485;28;19925;-60
2021/08/17 10:20:36;;;;;;;;;;;25.90;57.60;;;;;;4991303;28;20009;-59
2021/08/17 10:23:03;;;;;;;;;;;25.90;57.00;;;;;;4992174;28;20326;-60
2021/08/17 10:25:44;;;;;;;;;;;25.90;56.30;;;;;;4991498;28;19925;-60
2021/08/17 10:28:27;;;;;;;;;;;25.90;56.10;;;;;;4991311;28;19991;-60
2021/08/17 10:30:54;;;;;;;;;;;26.00;56.10;;;;;;4991644;28;20008;-60
2021/08/17 10:33:37;;;;;;;;;;;25.90;55.80;;;;;;4992473;28;20399;-59
2021/08/17 10:36:04;;;;;;;;;;;25.90;55.90;;;;;;4991388;28;20452;-60
2021/08/17 10:38:31;;;;;;;;;;;25.90;56.40;;;;;;4975201;28;20285;-60
2021/08/17 10:41:01;;;;;;;;;;;25.90;56.40;;;;;;4992338;28;19980;-59
2021/08/17 10:43:31;;;;;;;;;;;25.90;56.60;;;;;;4991430;28;20294;-60
2021/08/17 10:46:00;;;;;;;;;;;25.90;56.40;;;;;;4975429;28;20008;-60
2021/08/17 10:48:46;;;;;;;;;;;26.00;56.40;;;;;;4992449;28;19925;-59
2021/08/17 10:51:22;;;;;;;;;;;26.00;56.40;;;;;;4973956;28;20397;-59
2021/08/17 10:53:51;;;;;;;;;;;26.00;56.30;;;;;;4991748;28;19972;-61
2021/08/17 10:56:18;;;;;;;;;;;26.00;56.30;;;;;;4991220;28;19956;-60
2021/08/17 10:58:48;;;;;;;;;;;26.00;56.70;;;;;;4991842;28;19930;-59
2021/08/17 11:01:36;;;;;;;;;;;26.00;56.60;;;;;;4992015;28;19932;-61
2021/08/17 11:04:10;;;;;;;;;;;26.00;56.40;;;;;;4992295;28;19943;-60
2021/08/17 11:06:49;;;;;;;;;;;26.00;56.10;;;;;;4992300;28;19926;-60
2021/08/17 11:09:40;;;;;;;;;;;26.00;56.70;;;;;;4990794;28;20024;-60
2021/08/17 11:12:08;;;;;;;;;;;26.00;56.50;;;;;;4984146;28;19932;-60
2021/08/17 11:14:36;;;;;;;;;;;26.10;55.50;;;;;;4990792;28;20009;-60
2021/08/17 11:17:05;;;;;;;;;;;26.00;56.40;;;;;;4991939;28;20005;-60
2021/08/17 11:19:33;;;;;;;;;;;26.00;56.20;;;;;;4990501;28;19999;-60
2021/08/17 11:22:08;;;;;;;;;;;26.00;56.80;;;;;;4990861;28;20009;-59
2021/08/17 11:24:40;;;;;;;;;;;26.10;56.80;;;;;;4991855;28;19926;-60
2021/08/17 11:27:13;;;;;;;;;;;26.00;56.00;;;;;;4991499;28;19968;-60
2021/08/17 11:29:51;;;;;;;;;;;26.10;56.40;;;;;;4991973;28;20017;-60
2021/08/17 11:32:26;;;;;;;;;;;26.10;56.60;;;;;;4991925;28;20359;-60
2021/08/17 11:34:54;;;;;;;;;;;26.00;56.70;;;;;;4990341;28;19932;-60
2021/08/17 11:37:22;;;;;;;;;;;26.00;56.00;;;;;;4991353;28;19930;-60
2021/08/17 11:39:51;;;;;;;;;;;26.00;56.10;;;;;;4990185;28;20451;-60
2021/08/17 11:42:20;;;;;;;;;;;26.00;55.40;;;;;;4991693;28;19961;-61
2021/08/17 11:44:49;;;;;;;;;;;25.90;56.50;;;;;;4991667;28;19945;-60
2021/08/17 11:47:17;;;;;;;;;;;26.00;56.40;;;;;;4991267;28;20021;-59
2021/08/17 11:49:45;;;;;;;;;;;26.00;56.10;;;;;;4991513;28;20340;-59
2021/08/17 11:52:14;;;;;;;;;;;26.00;56.70;;;;;;4991445;28;19926;-60
2021/08/17 11:54:45;;;;;;;;;;;25.90;56.20;;;;;;4989981;28;19961;-60
2021/08/17 11:57:12;;;;;;;;;;;25.90;56.00;;;;;;4991419;28;20346;-60
2021/08/17 11:59:41;;;;;;;;;;;25.90;56.10;;;;;;4990927;28;19933;-60
2021/08/17 12:02:09;;;;;;;;;;;25.90;56.00;;;;;;4990067;28;20005;-60
2021/08/17 12:04:37;;;;;;;;;;;26.00;55.60;;;;;;4990203;28;20004;-60
2021/08/17 12:07:08;;;;;;;;;;;26.00;56.20;;;;;;4991291;28;20371;-60
2021/08/17 12:09:39;;;;;;;;;;;26.00;55.70;;;;;;4990931;28;19930;-60
2021/08/17 12:12:07;;;;;;;;;;;26.00;56.00;;;;;;4990826;28;19947;-60
2021/08/17 12:14:35;;;;;;;;;;;26.00;56.80;;;;;;4990109;28;19961;-60
2021/08/17 12:17:03;;;;;;;;;;;26.00;55.80;;;;;;4989626;28;20009;-59
2021/08/17 12:19:31;;;;;;;;;;;26.00;55.80;;;;;;4989711;28;20007;-60
2021/08/17 12:21:58;;;;;;;;;;;26.00;55.90;;;;;;4989772;28;20008;-60
2021/08/17 12:24:27;;;;;;;;;;;26.00;55.00;;;;;;4989772;28;20383;-60
2021/08/17 12:26:55;;;;;;;;;;;26.00;55.20;;;;;;4972345;28;19979;-60
2021/08/17 12:29:25;;;;;;;;;;;26.00;54.50;;;;;;4990699;28;20399;-59
2021/08/17 12:31:53;;;;;;;;;;;26.00;55.50;;;;;;4989433;28;19971;-60
2021/08/17 12:34:21;;;;;;;;;;;26.10;54.70;;;;;;4989585;28;20389;-59
2021/08/17 12:36:49;;;;;;;;;;;26.10;55.10;;;;;;4990526;28;19932;-60
2021/08/17 12:39:23;;;;;;;;;;;26.10;54.90;;;;;;4989349;28;19925;-60
2021/08/17 12:41:52;;;;;;;;;;;26.10;54.70;;;;;;4989809;28;19926;-60
2021/08/17 12:44:24;;;;;;;;;;;26.10;55.20;;;;;;4989036;28;19937;-61
2021/08/17 12:47:04;;;;;;;;;;;26.10;55.20;;;;;;4990685;28;20290;-60
2021/08/17 12:49:37;;;;;;;;;;;26.10;55.30;;;;;;4990474;28;19925;-60
2021/08/17 12:52:20;;;;;;;;;;;26.10;55.50;;;;;;4989597;28;19930;-60
2021/08/17 12:54:48;;;;;;;;;;;26.10;55.00;;;;;;4972819;28;20376;-59
2021/08/17 12:57:20;;;;;;;;;;;26.10;55.50;;;;;;4989472;28;21402;-59
2021/08/17 12:59:48;;;;;;;;;;;26.00;55.30;;;;;;4989224;28;20443;-60
2021/08/17 13:02:15;;;;;;;;;;;26.10;55.40;;;;;;4990584;28;19926;-61
2021/08/17 13:04:42;;;;;;;;;;;26.10;55.60;;;;;;4989789;28;19926;-60
2021/08/17 13:07:10;;;;;;;;;;;26.10;54.40;;;;;;4990226;28;19926;-59
2021/08/17 13:09:37;;;;;;;;;;;26.10;54.60;;;;;;4989465;28;19932;-60
2021/08/17 13:12:05;;;;;;;;;;;26.10;54.10;;;;;;4990481;28;19930;-59
2021/08/17 13:14:32;;;;;;;;;;;26.10;53.00;;;;;;4990293;28;19948;-60
2021/08/17 13:17:00;;;;;;;;;;;26.10;54.00;;;;;;4989674;28;19930;-59
2021/08/17 13:19:27;;;;;;;;;;;26.10;54.20;;;;;;4989386;28;20025;-60
2021/08/17 13:21:54;;;;;;;;;;;26.10;54.10;;;;;;4989514;28;20017;-59
2021/08/17 13:24:21;;;;;;;;;;;26.10;55.00;;;;;;4990115;28;19955;-60
2021/08/17 13:26:48;;;;;;;;;;;26.10;54.50;;;;;;4989843;28;19932;-59
2021/08/17 13:29:15;;;;;;;;;;;26.10;54.60;;;;;;4989027;28;20020;-60
2021/08/17 13:31:44;;;;;;;;;;;26.20;54.30;;;;;;4991708;28;19933;-60
2021/08/17 13:34:16;;;;;;;;;;;26.20;52.90;;;;;;4992980;28;19926;-60
2021/08/17 13:36:43;;;;;;;;;;;26.20;54.20;;;;;;4988855;28;19926;-60
2021/08/17 13:39:10;;;;;;;;;;;26.20;54.50;;;;;;4989724;28;19929;-60
2021/08/17 13:41:38;;;;;;;;;;;26.20;54.10;;;;;;4989850;28;19961;-60
2021/08/17 13:44:05;;;;;;;;;;;26.20;54.50;;;;;;4988749;28;20419;-60
2021/08/17 13:46:32;;;;;;;;;;;26.20;54.30;;;;;;4989931;28;19961;-60
2021/08/17 13:49:00;;;;;;;;;;;26.20;54.00;;;;;;4990027;28;20021;-60
2021/08/17 13:51:27;;;;;;;;;;;26.20;54.10;;;;;;4988743;28;19926;-60
2021/08/17 13:53:54;;;;;;;;;;;26.20;54.40;;;;;;4988477;28;20021;-60
2021/08/17 13:56:22;;;;;;;;;;;26.20;53.80;;;;;;4989697;28;19926;-60
2021/08/17 13:58:50;;;;;;;;;;;26.20;54.00;;;;;;4991636;28;19930;-59
2021/08/17 14:01:18;;;;;;;;;;;26.20;54.40;;;;;;4992299;28;20013;-60
2021/08/17 14:03:46;;;;;;;;;;;26.30;53.60;;;;;;4991855;28;20040;-60
2021/08/17 14:06:13;;;;;;;;;;;26.20;53.00;;;;;;4993268;28;19969;-60
2021/08/17 14:08:41;;;;;;;;;;;26.30;52.70;;;;;;4992010;28;19934;-60
2021/08/17 14:11:09;;;;;;;;;;;26.30;53.10;;;;;;4992188;28;19933;-60
2021/08/17 14:13:36;;;;;;;;;;;26.30;53.10;;;;;;4992235;28;20037;-60
2021/08/17 14:16:04;;;;;;;;;;;26.30;53.90;;;;;;4992877;28;19930;-59
2021/08/17 14:18:32;;;;;;;;;;;26.20;53.80;;;;;;4992668;28;19925;-59
2021/08/17 14:21:01;;;;;;;;;;;26.30;53.90;;;;;;4992860;28;19995;-59
2021/08/17 14:23:29;;;;;;;;;;;26.20;53.90;;;;;;4974980;28;19926;-59
2021/08/17 14:26:03;;;;;;;;;;;26.30;53.60;;;;;;4991662;28;19936;-59